Time;durP1;ratioP1;P1;durP2;ratioP2;P2;SDS_P1;SDS_P2;PMS_P1;PMS_P2;Temp;Humidity;BMP_temperature;BMP_pressure;BME280_temperature;BME280_humidity;BME280_pressure;Samples;Min_cycle;Max_cycle;Signal;HPM_P1;HPM_P2
2022/05/14 00:01:56;;;;;;;;;;;13.10;97.20;;;;;;4927953;29;20451;-83
2022/05/14 00:04:24;;;;;;;;;;;12.90;97.50;;;;;;4896114;29;19931;-81
2022/05/14 00:06:54;;;;;;;;;;;12.90;97.10;;;;;;4915003;29;19927;-83
2022/05/14 00:15:23;;;;;;;;;;;12.90;97.30;;;;;;4968172;29;19931;-81
2022/05/14 00:17:54;;;;;;;;;;;12.60;97.50;;;;;;4921484;29;19927;-80
2022/05/14 00:20:31;;;;;;;;;;;12.60;97.90;;;;;;4901268;29;19930;-82
2022/05/14 00:23:00;;;;;;;;;;;12.60;97.40;;;;;;4930255;29;20455;-83
2022/05/14 00:25:28;;;;;;;;;;;12.60;97.70;;;;;;4927584;29;19927;-82
2022/05/14 00:27:56;;;;;;;;;;;12.50;97.90;;;;;;4946941;29;19931;-82
2022/05/14 00:30:29;;;;;;;;;;;12.30;98.30;;;;;;4946272;29;19934;-82
2022/05/14 00:32:57;;;;;;;;;;;12.40;97.90;;;;;;4929847;29;19934;-82
2022/05/14 00:35:39;;;;;;;;;;;12.40;98.30;;;;;;4922633;29;19951;-81
2022/05/14 00:38:11;;;;;;;;;;;12.30;98.00;;;;;;4930399;29;19934;-83
2022/05/14 00:40:44;;;;;;;;;;;12.30;98.10;;;;;;4947753;29;19927;-82
2022/05/14 00:43:13;;;;;;;;;;;12.30;98.50;;;;;;4947123;29;19931;-82
2022/05/14 00:45:54;;;;;;;;;;;12.30;98.50;;;;;;4931095;29;20045;-84
2022/05/14 00:48:25;;;;;;;;;;;12.20;98.20;;;;;;4911435;29;19931;-82
2022/05/14 00:50:56;;;;;;;;;;;12.20;98.40;;;;;;4911199;29;19949;-85
2022/05/14 00:53:30;;;;;;;;;;;12.20;98.50;;;;;;4899264;29;19931;-83
2022/05/14 00:56:05;;;;;;;;;;;12.20;98.50;;;;;;4921640;29;20179;-81
2022/05/14 00:58:38;;;;;;;;;;;12.40;98.20;;;;;;4929234;29;19926;-83
2022/05/14 01:01:07;;;;;;;;;;;12.10;98.40;;;;;;4917632;29;19968;-82
2022/05/14 01:03:53;;;;;;;;;;;12.10;98.80;;;;;;4912171;29;19937;-82
2022/05/14 01:06:22;;;;;;;;;;;12.10;98.40;;;;;;4928074;29;19938;-84
2022/05/14 01:08:53;;;;;;;;;;;12.10;98.50;;;;;;4910562;29;19942;-83
2022/05/14 01:11:21;;;;;;;;;;;12.10;98.40;;;;;;4882392;29;19927;-82
2022/05/14 01:13:49;;;;;;;;;;;12.00;98.70;;;;;;4580784;29;10000523;-83
2022/05/14 01:16:20;;;;;;;;;;;12.00;98.80;;;;;;4932218;29;19927;-82
2022/05/14 01:18:49;;;;;;;;;;;12.00;98.80;;;;;;4910481;29;19938;-82
2022/05/14 01:21:28;;;;;;;;;;;11.40;99.10;;;;;;4927670;29;20236;-82
2022/05/14 01:26:50;;;;;;;;;;;11.90;99.20;;;;;;4928247;29;19926;-83
2022/05/14 01:29:20;;;;;;;;;;;11.80;99.10;;;;;;4931469;29;19937;-81
2022/05/14 01:31:52;;;;;;;;;;;11.80;99.10;;;;;;4943404;29;19946;-81
2022/05/14 01:34:41;;;;;;;;;;;11.70;99.20;;;;;;4929040;29;20208;-82
2022/05/14 01:37:10;;;;;;;;;;;11.70;99.20;;;;;;4929021;29;19930;-80
2022/05/14 01:39:40;;;;;;;;;;;11.70;99.60;;;;;;4943381;29;19942;-82
2022/05/14 01:42:09;;;;;;;;;;;11.60;99.90;;;;;;4935150;29;19931;-81
2022/05/14 01:44:37;;;;;;;;;;;11.60;99.50;;;;;;4912290;29;19935;-81
2022/05/14 01:47:05;;;;;;;;;;;11.60;99.70;;;;;;4947565;29;19934;-82
2022/05/14 01:49:33;;;;;;;;;;;11.50;99.80;;;;;;4934205;29;19927;-83
2022/05/14 01:52:01;;;;;;;;;;;11.50;99.70;;;;;;4932516;29;19927;-82
2022/05/14 01:54:29;;;;;;;;;;;11.50;99.90;;;;;;4931934;29;20341;-81
2022/05/14 01:57:00;;;;;;;;;;;11.50;99.90;;;;;;4929140;29;20337;-83
2022/05/14 01:59:29;;;;;;;;;;;11.40;99.90;;;;;;4910890;29;20396;-81
2022/05/14 02:01:58;;;;;;;;;;;11.40;99.90;;;;;;4925877;29;19938;-82
2022/05/14 02:04:25;;;;;;;;;;;11.40;99.80;;;;;;4926714;29;19950;-82
2022/05/14 02:06:54;;;;;;;;;;;11.30;99.90;;;;;;4926461;29;19931;-83
2022/05/14 02:09:21;;;;;;;;;;;11.20;99.90;;;;;;4926104;29;19931;-83
2022/05/14 02:11:55;;;;;;;;;;;11.30;99.90;;;;;;4928790;29;20405;-83
2022/05/14 02:14:31;;;;;;;;;;;11.30;99.90;;;;;;4906719;29;20455;-83
2022/05/14 02:16:59;;;;;;;;;;;11.30;99.90;;;;;;4925771;29;20493;-82
2022/05/14 02:19:29;;;;;;;;;;;11.30;99.90;;;;;;4925903;29;19938;-84
2022/05/14 02:21:57;;;;;;;;;;;11.20;99.90;;;;;;4911139;29;19931;-86
2022/05/14 02:24:25;;;;;;;;;;;11.20;99.90;;;;;;4907618;29;19927;-83
2022/05/14 02:26:54;;;;;;;;;;;11.50;99.90;;;;;;4907471;29;19927;-82
2022/05/14 02:29:22;;;;;;;;;;;11.10;99.90;;;;;;4907101;29;19938;-82
2022/05/14 02:31:50;;;;;;;;;;;11.20;99.90;;;;;;4893286;29;19932;-86
2022/05/14 02:34:17;;;;;;;;;;;11.40;99.90;;;;;;4910600;29;19927;-84
2022/05/14 02:36:45;;;;;;;;;;;11.10;99.90;;;;;;4912108;29;19932;-83
2022/05/14 02:39:13;;;;;;;;;;;11.10;99.90;;;;;;4933612;29;19934;-82
2022/05/14 02:41:41;;;;;;;;;;;11.20;99.90;;;;;;4948671;29;19927;-82
2022/05/14 02:44:08;;;;;;;;;;;11.10;99.90;;;;;;4943692;29;19953;-83
2022/05/14 02:46:36;;;;;;;;;;;11.10;99.90;;;;;;4912590;29;20109;-83
2022/05/14 02:49:05;;;;;;;;;;;11.10;99.90;;;;;;4915472;29;19927;-83
2022/05/14 02:51:33;;;;;;;;;;;11.10;99.90;;;;;;4912567;29;19934;-82
2022/05/14 02:54:00;;;;;;;;;;;11.80;99.90;;;;;;4913889;29;19931;-81
2022/05/14 02:56:28;;;;;;;;;;;11.10;99.90;;;;;;4926895;29;20288;-81
2022/05/14 02:59:08;;;;;;;;;;;11.00;99.90;;;;;;4915144;29;19934;-81
2022/05/14 03:01:47;;;;;;;;;;;11.00;99.90;;;;;;4930624;29;19931;-81
2022/05/14 03:04:24;;;;;;;;;;;11.10;99.90;;;;;;4929438;29;19927;-80
2022/05/14 03:06:53;;;;;;;;;;;11.00;99.90;;;;;;4928044;29;19938;-81
2022/05/14 03:09:21;;;;;;;;;;;10.90;99.90;;;;;;4913040;29;19927;-81
2022/05/14 03:11:49;;;;;;;;;;;11.00;99.90;;;;;;4923115;29;19938;-81
2022/05/14 03:14:17;;;;;;;;;;;9.80;99.90;;;;;;4916742;29;19937;-82
2022/05/14 03:16:45;;;;;;;;;;;10.80;99.90;;;;;;4932731;29;19930;-81
2022/05/14 03:19:13;;;;;;;;;;;10.80;99.90;;;;;;4886951;29;19927;-81
2022/05/14 03:21:41;;;;;;;;;;;11.00;99.90;;;;;;4931914;29;19927;-81
2022/05/14 03:24:10;;;;;;;;;;;10.70;99.90;;;;;;4931175;29;19930;-82
2022/05/14 03:26:39;;;;;;;;;;;10.70;99.90;;;;;;4933404;29;19938;-81
2022/05/14 03:29:07;;;;;;;;;;;11.70;99.90;;;;;;4913699;29;19931;-80
2022/05/14 03:31:36;;;;;;;;;;;10.60;99.90;;;;;;4930004;29;19927;-83
2022/05/14 03:34:04;;;;;;;;;;;10.50;99.90;;;;;;4928390;29;19927;-81
2022/05/14 03:36:33;;;;;;;;;;;10.50;99.90;;;;;;4912401;29;19934;-81
2022/05/14 03:39:01;;;;;;;;;;;10.50;99.90;;;;;;4916999;29;19934;-81
2022/05/14 03:41:29;;;;;;;;;;;10.50;99.90;;;;;;4926398;29;20335;-80
2022/05/14 03:43:57;;;;;;;;;;;10.40;99.90;;;;;;4913707;29;19927;-81
2022/05/14 03:46:25;;;;;;;;;;;10.40;99.90;;;;;;4922891;29;19934;-81
2022/05/14 03:48:53;;;;;;;;;;;10.40;99.90;;;;;;4931101;29;19933;-80
2022/05/14 03:51:21;;;;;;;;;;;10.50;99.90;;;;;;4931868;29;19927;-82
2022/05/14 03:53:49;;;;;;;;;;;10.40;99.90;;;;;;4931485;29;19930;-82
2022/05/14 03:56:17;;;;;;;;;;;10.40;99.90;;;;;;4925450;29;19935;-83
2022/05/14 03:58:45;;;;;;;;;;;10.40;99.90;;;;;;4915160;29;19928;-82
2022/05/14 04:01:13;;;;;;;;;;;10.30;99.90;;;;;;4897813;29;19927;-84
2022/05/14 04:03:41;;;;;;;;;;;10.30;99.90;;;;;;4897653;29;20183;-81
2022/05/14 04:06:09;;;;;;;;;;;10.00;99.90;;;;;;4912618;29;19931;-83
2022/05/14 04:08:37;;;;;;;;;;;10.30;99.90;;;;;;4910455;29;19931;-81
2022/05/14 04:11:06;;;;;;;;;;;10.20;99.90;;;;;;4908938;29;19934;-82
2022/05/14 04:13:34;;;;;;;;;;;10.30;99.90;;;;;;4912950;29;19927;-82
2022/05/14 04:16:03;;;;;;;;;;;11.20;99.90;;;;;;4913303;29;20103;-81
2022/05/14 04:18:31;;;;;;;;;;;10.20;99.90;;;;;;4911996;29;20408;-82
2022/05/14 04:21:00;;;;;;;;;;;10.20;99.90;;;;;;4930182;29;20399;-82
2022/05/14 04:23:29;;;;;;;;;;;10.20;99.90;;;;;;4928237;29;19937;-83
2022/05/14 04:25:58;;;;;;;;;;;10.20;99.90;;;;;;4905219;29;19934;-82
2022/05/14 04:28:26;;;;;;;;;;;10.20;99.90;;;;;;4896782;29;19939;-82
2022/05/14 04:30:55;;;;;;;;;;;10.20;99.90;;;;;;4911069;29;19931;-81
2022/05/14 04:33:24;;;;;;;;;;;10.20;99.90;;;;;;4896918;29;19953;-83
2022/05/14 04:35:51;;;;;;;;;;;10.90;99.90;;;;;;4897391;29;19931;-84
2022/05/14 04:38:19;;;;;;;;;;;10.30;99.90;;;;;;4904788;28;19950;-83
2022/05/14 04:40:48;;;;;;;;;;;10.30;99.90;;;;;;4937130;29;19941;-82
2022/05/14 04:43:16;;;;;;;;;;;10.40;99.90;;;;;;4917935;29;19933;-83
2022/05/14 04:45:44;;;;;;;;;;;10.50;99.90;;;;;;4933227;29;19930;-84
2022/05/14 04:48:13;;;;;;;;;;;10.50;99.90;;;;;;4932076;29;20097;-83
2022/05/14 04:50:41;;;;;;;;;;;10.60;99.90;;;;;;4930264;29;19927;-82
2022/05/14 04:53:09;;;;;;;;;;;11.10;99.90;;;;;;4929340;29;19942;-81
2022/05/14 04:55:39;;;;;;;;;;;10.70;99.90;;;;;;4929567;29;19935;-81
2022/05/14 04:58:08;;;;;;;;;;;10.80;99.90;;;;;;4913983;29;20431;-82
2022/05/14 05:00:37;;;;;;;;;;;10.80;99.90;;;;;;4931494;29;19933;-81
2022/05/14 05:03:19;;;;;;;;;;;9.30;99.90;;;;;;4930268;29;19930;-81
2022/05/14 05:05:54;;;;;;;;;;;11.00;99.90;;;;;;4929085;29;19938;-80
2022/05/14 05:08:23;;;;;;;;;;;11.00;99.90;;;;;;4912839;29;19927;-81
2022/05/14 05:10:51;;;;;;;;;;;11.30;99.90;;;;;;4924011;29;19934;-81
2022/05/14 05:13:21;;;;;;;;;;;11.10;99.90;;;;;;4921623;29;19938;-80
2022/05/14 05:15:49;;;;;;;;;;;11.20;99.90;;;;;;4928748;29;19926;-81
2022/05/14 05:18:18;;;;;;;;;;;11.20;99.90;;;;;;4928665;29;19927;-80
2022/05/14 05:20:48;;;;;;;;;;;12.20;99.90;;;;;;4929277;29;19926;-81
2022/05/14 05:23:18;;;;;;;;;;;11.30;99.90;;;;;;4929538;29;19927;-81
2022/05/14 05:25:46;;;;;;;;;;;11.30;99.90;;;;;;4928861;29;19935;-79
2022/05/14 05:28:14;;;;;;;;;;;11.30;99.90;;;;;;4933569;29;19930;-81
2022/05/14 05:30:42;;;;;;;;;;;11.30;99.90;;;;;;4948520;29;19927;-81
2022/05/14 05:33:11;;;;;;;;;;;11.30;99.90;;;;;;4933932;29;19937;-80
2022/05/14 05:35:39;;;;;;;;;;;11.30;99.90;;;;;;4942802;29;19931;-81
2022/05/14 05:38:07;;;;;;;;;;;11.30;99.90;;;;;;4915607;29;19931;-81
2022/05/14 05:40:35;;;;;;;;;;;11.40;99.90;;;;;;4930359;29;19931;-82
2022/05/14 05:43:05;;;;;;;;;;;11.80;99.90;;;;;;4932482;29;19930;-81
2022/05/14 05:45:33;;;;;;;;;;;11.40;99.90;;;;;;4962295;29;19926;-81
2022/05/14 05:48:01;;;;;;;;;;;11.50;99.90;;;;;;4928196;29;19927;-82
2022/05/14 05:50:30;;;;;;;;;;;12.10;99.90;;;;;;4913422;29;20108;-81
2022/05/14 05:52:58;;;;;;;;;;;11.60;99.90;;;;;;4928847;29;19931;-81
2022/05/14 05:58:19;;;;;;;;;;;11.70;99.90;;;;;;4911917;29;19927;-83
2022/05/14 06:00:47;;;;;;;;;;;11.80;99.90;;;;;;4927899;29;19934;-82
2022/05/14 06:03:17;;;;;;;;;;;11.80;99.90;;;;;;4926371;29;19934;-81
2022/05/14 06:05:46;;;;;;;;;;;11.90;99.90;;;;;;4947975;29;19934;-81
2022/05/14 06:08:19;;;;;;;;;;;11.90;99.90;;;;;;4947163;29;20395;-82
2022/05/14 06:10:47;;;;;;;;;;;11.90;99.90;;;;;;4588076;28;10000515;-81
2022/05/14 06:13:17;;;;;;;;;;;12.00;99.90;;;;;;4894037;29;19937;-82
2022/05/14 06:15:46;;;;;;;;;;;12.00;99.90;;;;;;4935671;29;20007;-80
2022/05/14 06:18:15;;;;;;;;;;;12.10;99.90;;;;;;4957253;29;19939;-81
2022/05/14 06:20:43;;;;;;;;;;;11.90;99.90;;;;;;4921946;29;20148;-80
2022/05/14 06:23:14;;;;;;;;;;;10.90;99.90;;;;;;4896126;29;19927;-80
2022/05/14 06:25:42;;;;;;;;;;;12.20;99.90;;;;;;4916400;29;19927;-81
2022/05/14 06:28:11;;;;;;;;;;;12.20;99.90;;;;;;4910234;29;19927;-81
2022/05/14 06:30:43;;;;;;;;;;;12.20;99.90;;;;;;4913321;29;19928;-82
2022/05/14 06:33:14;;;;;;;;;;;12.30;99.90;;;;;;4930219;29;19933;-81
2022/05/14 06:35:44;;;;;;;;;;;12.30;99.90;;;;;;4910295;29;19927;-83
2022/05/14 06:38:13;;;;;;;;;;;12.30;99.90;;;;;;4912785;29;19930;-83
2022/05/14 06:40:42;;;;;;;;;;;12.40;99.90;;;;;;4908980;29;19927;-82
2022/05/14 06:43:10;;;;;;;;;;;12.40;99.90;;;;;;4930013;29;19930;-82
2022/05/14 06:45:38;;;;;;;;;;;12.60;99.90;;;;;;4939706;29;19927;-82
2022/05/14 06:48:06;;;;;;;;;;;12.60;99.90;;;;;;4923596;29;19946;-83
2022/05/14 06:50:38;;;;;;;;;;;12.70;99.90;;;;;;4909311;29;19934;-82
2022/05/14 06:53:07;;;;;;;;;;;12.90;99.90;;;;;;4908942;29;19931;-84
2022/05/14 06:55:36;;;;;;;;;;;13.00;99.90;;;;;;4936679;29;19939;-81
2022/05/14 06:58:05;;;;;;;;;;;13.10;99.90;;;;;;4930515;29;20368;-82
2022/05/14 07:00:33;;;;;;;;;;;13.00;99.90;;;;;;4947330;29;19931;-81
2022/05/14 07:08:36;;;;;;;;;;;13.60;99.90;;;;;;4944783;29;19946;-82
2022/05/14 07:11:07;;;;;;;;;;;13.60;99.90;;;;;;4912752;29;19934;-83
2022/05/14 07:13:37;;;;;;;;;;;13.70;99.90;;;;;;4921756;29;19931;-85
2022/05/14 07:16:05;;;;;;;;;;;13.80;99.90;;;;;;4908743;29;19931;-81
2022/05/14 07:18:33;;;;;;;;;;;13.90;99.90;;;;;;4930375;29;19937;-82
2022/05/14 07:21:03;;;;;;;;;;;13.70;99.90;;;;;;4921178;29;19933;-82
2022/05/14 07:23:32;;;;;;;;;;;14.10;99.90;;;;;;4914700;29;20012;-83
2022/05/14 07:26:03;;;;;;;;;;;14.20;99.90;;;;;;4905209;29;19931;-82
2022/05/14 07:28:33;;;;;;;;;;;14.20;99.90;;;;;;4916048;29;19934;-82
2022/05/14 07:31:01;;;;;;;;;;;14.20;99.90;;;;;;4937919;29;19926;-82
2022/05/14 07:33:29;;;;;;;;;;;14.60;99.90;;;;;;4950534;29;19935;-81
2022/05/14 07:36:02;;;;;;;;;;;14.30;99.90;;;;;;4927849;29;19938;-82
2022/05/14 07:38:30;;;;;;;;;;;14.40;99.90;;;;;;4913219;29;19931;-81
2022/05/14 07:40:58;;;;;;;;;;;14.30;99.90;;;;;;4928718;29;19941;-82
2022/05/14 07:43:30;;;;;;;;;;;14.40;99.90;;;;;;4954436;29;19930;-81
2022/05/14 07:46:02;;;;;;;;;;;14.10;99.90;;;;;;4915304;29;19927;-84
2022/05/14 07:48:31;;;;;;;;;;;14.50;99.90;;;;;;4923065;29;20334;-81
2022/05/14 07:51:04;;;;;;;;;;;14.50;99.90;;;;;;4923795;29;19937;-81
2022/05/14 07:53:33;;;;;;;;;;;14.50;99.90;;;;;;4925844;29;19926;-81
2022/05/14 07:56:05;;;;;;;;;;;14.50;99.90;;;;;;4909194;29;20328;-82
2022/05/14 07:58:33;;;;;;;;;;;14.60;99.90;;;;;;4914470;29;19931;-80
2022/05/14 08:01:01;;;;;;;;;;;14.80;99.90;;;;;;4908727;29;19935;-81
2022/05/14 08:03:32;;;;;;;;;;;14.60;99.90;;;;;;4944241;29;19931;-83
2022/05/14 08:06:01;;;;;;;;;;;14.70;99.90;;;;;;4928325;29;19931;-83
2022/05/14 08:08:30;;;;;;;;;;;14.20;99.70;;;;;;5092809;23;19927;-82
2022/05/14 08:10:58;;;;;;;;;;;14.80;99.90;;;;;;4964342;29;19926;-82
2022/05/14 08:13:26;;;;;;;;;;;14.00;99.90;;;;;;4948239;29;20024;-82
2022/05/14 08:15:55;;;;;;;;;;;14.90;99.90;;;;;;4919785;29;19974;-81
2022/05/14 08:18:23;;;;;;;;;;;14.20;99.80;;;;;;4962905;28;19942;-82
2022/05/14 08:20:51;;;;;;;;;;;15.00;99.90;;;;;;4963704;29;19927;-84
2022/05/14 08:26:09;;;;;;;;;;;16.70;99.90;;;;;;4960974;29;19930;-82
2022/05/14 08:28:37;;;;;;;;;;;15.60;99.80;;;;;;4916213;29;20405;-83
2022/05/14 08:31:11;;;;;;;;;;;15.40;99.90;;;;;;4946030;29;19930;-84
2022/05/14 08:33:39;;;;;;;;;;;15.40;99.00;;;;;;4960608;29;21015;-86
2022/05/14 08:36:07;;;;;;;;;;;15.60;99.80;;;;;;4962504;29;19927;-83
2022/05/14 08:38:37;;;;;;;;;;;15.50;99.70;;;;;;4958347;28;19935;-82
2022/05/14 08:41:05;;;;;;;;;;;14.50;99.10;;;;;;4932952;29;19953;-82
2022/05/14 08:47:40;;;;;;;;;;;15.70;99.20;;;;;;4924956;29;19930;-86
2022/05/14 08:51:16;;;;;;;;;;;16.00;99.30;;;;;;4876293;29;19935;-87
2022/05/14 08:55:11;;;;;;;;;;;14.40;98.40;;;;;;4861933;29;19970;-86
2022/05/14 09:03:34;;;;;;;;;;;17.10;98.70;;;;;;4803203;29;19934;-87
2022/05/14 09:11:11;;;;;;;;;;;16.30;97.70;;;;;;4802886;29;20053;-86
2022/05/14 09:14:32;;;;;;;;;;;17.10;97.70;;;;;;4800008;29;19936;-86
2022/05/14 09:17:50;;;;;;;;;;;;;;;;;;;;;
2022/05/14 09:21:21;;;;;;;;;;;;;;;;;;;;;
2022/05/14 09:25:10;;;;;;;;;;;;;;;;;;;;;
2022/05/14 09:29:24;;;;;;;;;;;16.70;97.40;;;;;;4774037;29;19929;-85
2022/05/14 09:38:04;;;;;;;;;;;15.70;96.40;;;;;;4681140;30;19931;-86
2022/05/14 09:53:21;;;;;;;;;;;;;;;;;;;;;
2022/05/14 10:00:07;;;;;;;;;;;;;;;;;;;;;
2022/05/14 10:03:51;;;;;;;;;;;18.00;95.00;;;;;;4801040;29;19929;-87
2022/05/14 10:06:26;;;;;;;;;;;18.00;95.20;;;;;;4860636;29;20459;-85
2022/05/14 10:09:04;;;;;;;;;;;18.30;94.80;;;;;;4863954;29;19946;-86
2022/05/14 10:11:44;;;;;;;;;;;18.30;95.00;;;;;;4904088;29;19928;-87
2022/05/14 10:14:38;;;;;;;;;;;18.70;94.80;;;;;;4885884;29;19962;-87
2022/05/14 10:17:16;;;;;;;;;;;18.70;94.30;;;;;;4938918;29;19946;-88
2022/05/14 10:19:50;;;;;;;;;;;18.80;94.20;;;;;;4906539;29;20541;-88
2022/05/14 10:26:44;;;;;;;;;;;18.90;94.30;;;;;;4920089;29;19935;-89
2022/05/14 10:28:31;;;;;;;;;;;19.00;93.00;;;;;;4908873;29;20173;-89
2022/05/14 10:31:12;;;;;;;;;;;19.10;93.40;;;;;;4919757;29;19938;-88
2022/05/14 10:33:41;;;;;;;;;;;20.00;93.10;;;;;;4910165;29;19926;-87
2022/05/14 10:36:20;;;;;;;;;;;19.30;93.30;;;;;;4928383;29;19938;-89
2022/05/14 10:38:53;;;;;;;;;;;19.30;93.00;;;;;;4907678;29;19927;-84
2022/05/14 10:41:29;;;;;;;;;;;19.50;93.20;;;;;;4920008;29;19927;-83
2022/05/14 10:44:15;;;;;;;;;;;19.70;92.30;;;;;;4936910;29;19942;-84
2022/05/14 10:47:20;;;;;;;;;;;19.70;92.20;;;;;;4923737;29;19934;-85
2022/05/14 10:50:19;;;;;;;;;;;20.40;91.80;;;;;;4894544;29;19927;-81
2022/05/14 10:52:48;;;;;;;;;;;19.80;91.50;;;;;;4904053;29;19942;-84
2022/05/14 10:55:17;;;;;;;;;;;20.10;91.30;;;;;;4922531;29;19943;-82
2022/05/14 10:57:47;;;;;;;;;;;20.30;89.60;;;;;;4924412;29;19990;-82
2022/05/14 11:00:32;;;;;;;;;;;20.40;90.20;;;;;;4921382;29;19938;-83
2022/05/14 11:03:20;;;;;;;;;;;20.50;90.70;;;;;;4910682;29;19958;-84
2022/05/14 11:06:00;;;;;;;;;;;20.70;89.00;;;;;;4925263;29;19942;-82
2022/05/14 11:08:55;;;;;;;;;;;20.80;89.60;;;;;;4922844;29;20649;-81
2022/05/14 11:11:51;;;;;;;;;;;20.50;86.20;;;;;;4571290;29;9999637;-84
2022/05/14 11:14:35;;;;;;;;;;;21.00;89.50;;;;;;4909016;29;19927;-83
2022/05/14 11:17:40;;;;;;;;;;;21.30;89.70;;;;;;4943137;29;19927;-83
2022/05/14 11:20:17;;;;;;;;;;;21.20;89.10;;;;;;4927071;29;19931;-84
2022/05/14 11:23:24;;;;;;;;;;;;;;;;;;;;;
2022/05/14 11:26:59;;;;;;;;;;;21.50;88.60;;;;;;4867071;29;19935;-84
2022/05/14 11:30:25;;;;;;;;;;;;;;;;;;;;;
2022/05/14 11:32:57;;;;;;;;;;;21.90;87.50;;;;;;4853027;29;19936;-82
2022/05/14 11:36:34;;;;;;;;;;;22.00;87.50;;;;;;4852369;29;19977;-82
2022/05/14 11:39:21;;;;;;;;;;;22.20;84.90;;;;;;4853334;29;19971;-81
2022/05/14 11:41:51;;;;;;;;;;;21.80;84.90;;;;;;4853815;29;19943;-81
2022/05/14 11:44:37;;;;;;;;;;;22.50;82.90;;;;;;4853255;29;19936;-82
2022/05/14 11:47:29;;;;;;;;;;;22.60;81.70;;;;;;4868835;29;19936;-81
2022/05/14 11:50:00;;;;;;;;;;;22.80;81.50;;;;;;4861778;29;20282;-81
2022/05/14 11:53:17;;;;;;;;;;;22.90;84.10;;;;;;4943516;29;19935;-81
2022/05/14 11:59:34;;;;;;;;;;;24.10;79.00;;;;;;4928394;29;19925;-82
2022/05/14 12:02:32;;;;;;;;;;;23.00;79.10;;;;;;4931282;29;19938;-84
2022/05/14 12:09:44;;;;;;;;;;;23.20;79.50;;;;;;4999372;23;20505;-83
2022/05/14 12:12:20;;;;;;;;;;;23.70;76.90;;;;;;4943168;28;19937;-85
2022/05/14 12:14:49;;;;;;;;;;;23.50;77.40;;;;;;4977554;28;19926;-83
2022/05/14 12:17:21;;;;;;;;;;;23.60;77.40;;;;;;4960417;28;19930;-83
2022/05/14 12:19:56;;;;;;;;;;;23.60;76.20;;;;;;4947997;28;19934;-82
2022/05/14 12:22:36;;;;;;;;;;;23.70;75.80;;;;;;4943890;28;19941;-83
2022/05/14 12:25:11;;;;;;;;;;;23.80;76.70;;;;;;4958313;28;19933;-85
2022/05/14 12:28:20;;;;;;;;;;;25.10;76.60;;;;;;4945840;28;20413;-88
2022/05/14 12:33:40;;;;;;;;;;;24.00;75.10;;;;;;4961083;28;19934;-83
2022/05/14 12:36:15;;;;;;;;;;;24.10;75.20;;;;;;4945691;28;19937;-82
2022/05/14 12:38:43;;;;;;;;;;;24.10;74.70;;;;;;4962101;28;19957;-83
2022/05/14 12:41:20;;;;;;;;;;;24.10;74.50;;;;;;4982521;28;19934;-83
2022/05/14 12:43:48;;;;;;;;;;;24.30;72.50;;;;;;4960600;28;19934;-83
2022/05/14 12:46:19;;;;;;;;;;;24.40;73.50;;;;;;4964166;28;19930;-83
2022/05/14 12:48:49;;;;;;;;;;;24.40;71.60;;;;;;4960763;28;19933;-82
2022/05/14 12:51:21;;;;;;;;;;;24.40;73.10;;;;;;4962184;28;19926;-83
2022/05/14 12:53:49;;;;;;;;;;;24.50;72.80;;;;;;4976494;28;19937;-83
2022/05/14 12:56:18;;;;;;;;;;;24.50;71.60;;;;;;4960931;28;19937;-84
2022/05/14 12:58:49;;;;;;;;;;;24.70;71.60;;;;;;4963082;28;19930;-82
2022/05/14 13:01:18;;;;;;;;;;;24.70;72.00;;;;;;4967140;28;19930;-84
2022/05/14 13:03:53;;;;;;;;;;;25.00;73.40;;;;;;4951997;28;19926;-82
2022/05/14 13:06:23;;;;;;;;;;;25.00;71.40;;;;;;4981828;28;19934;-83
2022/05/14 13:08:54;;;;;;;;;;;25.10;72.80;;;;;;4964980;28;19941;-82
2022/05/14 13:11:37;;;;;;;;;;;25.20;70.70;;;;;;4942072;28;19934;-81
2022/05/14 13:14:33;;;;;;;;;;;25.50;69.40;;;;;;4943590;28;19985;-82
2022/05/14 13:17:10;;;;;;;;;;;25.30;70.40;;;;;;4930118;28;19933;-83
2022/05/14 13:19:43;;;;;;;;;;;25.70;69.60;;;;;;4943516;28;19934;-82
2022/05/14 13:22:36;;;;;;;;;;;25.20;70.00;;;;;;4938139;28;19938;-82
2022/05/14 13:25:23;;;;;;;;;;;25.30;70.10;;;;;;4954076;28;19930;-82
2022/05/14 13:27:51;;;;;;;;;;;26.90;71.00;;;;;;4940968;28;19926;-84
2022/05/14 13:30:29;;;;;;;;;;;25.30;70.80;;;;;;4938545;28;19927;-83
2022/05/14 13:33:23;;;;;;;;;;;25.40;69.80;;;;;;4954095;28;19926;-82
2022/05/14 13:39:01;;;;;;;;;;;25.00;69.80;;;;;;4926478;28;19933;-81
2022/05/14 13:41:39;;;;;;;;;;;26.10;70.80;;;;;;4975289;28;19934;-81
2022/05/14 13:44:14;;;;;;;;;;;26.40;69.80;;;;;;4975089;28;19941;-83
2022/05/14 13:46:46;;;;;;;;;;;26.60;68.10;;;;;;4924172;28;19926;-83
2022/05/14 13:49:27;;;;;;;;;;;26.70;68.80;;;;;;4942634;28;19930;-84
2022/05/14 13:51:58;;;;;;;;;;;26.90;69.10;;;;;;4964489;28;19934;-82
2022/05/14 13:54:34;;;;;;;;;;;27.20;68.30;;;;;;4941201;28;19931;-80
2022/05/14 13:57:18;;;;;;;;;;;27.40;68.70;;;;;;4974873;28;20593;-81
2022/05/14 13:59:54;;;;;;;;;;;27.60;66.90;;;;;;4957672;28;19941;-82
2022/05/14 14:02:26;;;;;;;;;;;26.80;67.90;;;;;;4961764;28;19926;-82
2022/05/14 14:04:56;;;;;;;;;;;27.80;67.80;;;;;;4947763;28;19934;-81
2022/05/14 14:07:31;;;;;;;;;;;28.00;66.20;;;;;;4959727;28;19934;-81
2022/05/14 14:10:15;;;;;;;;;;;28.30;66.80;;;;;;4912080;29;19923;-83
2022/05/14 14:12:45;;;;;;;;;;;28.50;66.80;;;;;;4925257;29;21248;-81
2022/05/14 14:15:15;;;;;;;;;;;29.40;66.20;;;;;;4896796;29;19935;-82
2022/05/14 14:17:47;;;;;;;;;;;28.80;64.70;;;;;;4941561;29;19942;-81
2022/05/14 14:20:43;;;;;;;;;;;28.90;65.80;;;;;;4940499;29;19931;-85
2022/05/14 14:23:29;;;;;;;;;;;29.30;65.70;;;;;;4940206;29;19926;-89
2022/05/14 14:30:32;;;;;;;;;;;29.90;65.10;;;;;;4866030;29;19916;-90
2022/05/14 14:37:49;;;;;;;;;;;29.80;61.90;;;;;;4856568;29;19935;-91
2022/05/14 14:40:18;;;;;;;;;;;30.50;62.10;;;;;;4870755;29;19942;-89
2022/05/14 14:42:51;;;;;;;;;;;30.70;61.70;;;;;;4930909;29;19935;-90
2022/05/14 14:45:20;;;;;;;;;;;29.20;62.80;;;;;;4926951;29;19927;-90
2022/05/14 14:47:54;;;;;;;;;;;30.70;62.30;;;;;;4953492;29;19933;-92
2022/05/14 14:51:07;;;;;;;;;;;30.80;61.40;;;;;;4934642;29;19945;-89
2022/05/14 14:54:49;;;;;;;;;;;30.70;62.70;;;;;;4919419;29;22019;-86
2022/05/14 14:57:35;;;;;;;;;;;30.80;60.60;;;;;;4933333;29;19933;-87
2022/05/14 15:08:10;;;;;;;;;;;31.70;59.20;;;;;;5081277;23;19929;-88
2022/05/14 15:10:42;;;;;;;;;;;31.80;59.50;;;;;;4968847;28;19930;-86
2022/05/14 15:19:18;;;;;;;;;;;32.20;59.20;;;;;;4926878;29;19950;-87
2022/05/14 15:23:29;;;;;;;;;;;;;;;;;;;;;
2022/05/14 15:26:31;;;;;;;;;;;32.70;57.70;;;;;;4972071;28;19914;-88
2022/05/14 15:29:09;;;;;;;;;;;33.20;57.00;;;;;;4937740;28;19945;-88
2022/05/14 15:31:53;;;;;;;;;;;33.50;56.60;;;;;;4936719;28;19940;-86
2022/05/14 15:34:21;;;;;;;;;;;33.50;56.50;;;;;;4984531;28;19934;-87
2022/05/14 15:36:55;;;;;;;;;;;33.70;56.60;;;;;;4967984;28;19942;-88
2022/05/14 15:39:24;;;;;;;;;;;34.70;56.90;;;;;;4971071;28;19952;-87
2022/05/14 15:42:14;;;;;;;;;;;34.00;55.30;;;;;;4969461;28;19926;-87
2022/05/14 15:44:50;;;;;;;;;;;33.90;54.90;;;;;;4965968;28;19930;-88
2022/05/14 15:48:09;;;;;;;;;;;33.90;54.80;;;;;;4964325;28;19937;-87
2022/05/14 15:50:39;;;;;;;;;;;33.90;54.70;;;;;;4970653;28;19936;-87
2022/05/14 15:53:41;;;;;;;;;;;33.80;55.40;;;;;;4955639;28;19933;-88
2022/05/14 15:56:36;;;;;;;;;;;33.60;54.90;;;;;;4982746;28;19914;-88
2022/05/14 15:59:14;;;;;;;;;;;34.10;54.80;;;;;;4966909;28;19930;-87
2022/05/14 16:01:48;;;;;;;;;;;34.20;55.40;;;;;;4955603;28;19934;-88
2022/05/14 16:05:09;;;;;;;;;;;34.50;54.40;;;;;;4970671;28;19932;-88
2022/05/14 16:08:08;;;;;;;;;;;34.60;53.60;;;;;;4985415;28;19935;-88
2022/05/14 16:17:31;;;;;;;;;;;34.70;53.70;;;;;;4982853;28;19918;-87
2022/05/14 16:20:30;;;;;;;;;;;34.90;53.50;;;;;;4971716;28;19933;-86
2022/05/14 16:23:41;;;;;;;;;;;35.80;52.20;;;;;;4969790;28;19926;-86
2022/05/14 16:26:27;;;;;;;;;;;33.30;50.70;;;;;;4980271;28;19930;-86
2022/05/14 16:33:04;;;;;;;;;;;34.60;52.20;;;;;;4970487;28;20132;-87
2022/05/14 16:35:45;;;;;;;;;;;34.90;53.80;;;;;;4949105;28;19930;-86
2022/05/14 16:38:22;;;;;;;;;;;35.10;51.80;;;;;;4965876;28;19926;-87
2022/05/14 16:40:57;;;;;;;;;;;35.30;51.80;;;;;;4987425;28;19931;-89
2022/05/14 16:43:26;;;;;;;;;;;38.20;54.70;;;;;;4953245;28;19933;-88
2022/05/14 16:45:53;;;;;;;;;;;35.10;51.50;;;;;;4969514;28;19926;-85
2022/05/14 16:48:22;;;;;;;;;;;35.00;53.00;;;;;;4951423;28;19941;-83
2022/05/14 16:50:50;;;;;;;;;;;35.20;52.20;;;;;;4981023;28;19930;-85
2022/05/14 16:54:22;;;;;;;;;;;35.40;52.60;;;;;;4963687;28;19926;-86
2022/05/14 16:57:13;;;;;;;;;;;35.20;51.40;;;;;;4974130;28;19941;-86
2022/05/14 16:59:48;;;;;;;;;;;34.20;51.80;;;;;;4966645;28;20386;-86
2022/05/14 17:02:28;;;;;;;;;;;35.20;51.90;;;;;;4964644;28;19933;-87
2022/05/14 17:04:57;;;;;;;;;;;35.40;51.60;;;;;;4946484;28;19937;-87
2022/05/14 17:07:28;;;;;;;;;;;35.40;53.40;;;;;;4962057;28;19926;-86